A`zab, Iran

54°F / 12°C
Clear
Humidity: 77%
Dew Point: 46°F / 8°C
Wind: North at 0 mph / 0 km/h
Pressure: 30.09 in / 1019 hPa (Steady)
Visibility: 4.3 miles / 7.0 kilometers
Clouds:
Yesterday's Maximum: 68°F / 20°C
Yesterday's Minimum: 52°F / 11°C approx.
Yesterday's Heating Degree Days: 5 approx.
Sunrise:6:49 AM +0330
Sunset:6:07 PM +0330
Moon Rise:9:21 PM +0330
Moon Set:8:50 AM +0330
Moon Phase Waning Gibbous
NOAA Weather Radio
No local feed.
METAR OIAM 220400Z 00000KT 7000 NSC 12/08 Q1019
As of: 7:30 AM +0330 on February 22, 2019
Observed at: Bandar Mahshahr / Mahshah, Iran

View Station's History

Local Satellite

Current Satellite Forecast
Region Default Local
No Yes

View Full Screen WunderMap

Forecast

Current Satellite Forecast
Thursday
. High: 69° F. / 20° C.

. High: 53° F. / 11° C.

Features

Weather Apps

WunderRadio

Weather Underground Apps
Check out our wide variety of mobile and setup applications.

Weather Underground Applications

Top of Page

© Copyright 2019
The Weather Company, LLC